sensor_id;sensor_type;location;lat;lon;timestamp;P1;P2;P0
65383;PMS5003;51986;52.788;41.368;2022-09-09T00:00:23;20.00;20.00;16.00
65383;PMS5003;51986;52.788;41.368;2022-09-09T00:03:06;16.25;15.25;13.75
65383;PMS5003;51986;52.788;41.368;2022-09-09T00:05:45;13.00;12.00;12.00
65383;PMS5003;51986;52.788;41.368;2022-09-09T00:08:20;19.50;19.00;16.00
65383;PMS5003;51986;52.788;41.368;2022-09-09T00:10:53;20.75;20.00;16.00
65383;PMS5003;51986;52.788;41.368;2022-09-09T00:13:30;16.00;15.25;15.00
65383;PMS5003;51986;52.788;41.368;2022-09-09T00:16:25;15.00;14.00;13.00
65383;PMS5003;51986;52.788;41.368;2022-09-09T00:18:56;15.00;15.00;13.00
65383;PMS5003;51986;52.788;41.368;2022-09-09T00:21:36;17.75;17.50;15.00
65383;PMS5003;51986;52.788;41.368;2022-09-09T00:24:09;20.75;20.00;17.00
65383;PMS5003;51986;52.788;41.368;2022-09-09T00:26:51;23.00;21.00;18.00
65383;PMS5003;51986;52.788;41.368;2022-09-09T00:29:40;23.00;21.00;17.00
65383;PMS5003;51986;52.788;41.368;2022-09-09T00:32:12;18.75;18.75;15.00
65383;PMS5003;51986;52.788;41.368;2022-09-09T00:34:48;22.75;21.00;17.00
65383;PMS5003;51986;52.788;41.368;2022-09-09T00:37:20;19.00;18.25;14.50
65383;PMS5003;51986;52.788;41.368;2022-09-09T00:39:49;22.00;21.50;16.75
65383;PMS5003;51986;52.788;41.368;2022-09-09T00:42:24;26.00;23.00;19.00
65383;PMS5003;51986;52.788;41.368;2022-09-09T00:47:55;24.50;22.25;18.50
65383;PMS5003;51986;52.788;41.368;2022-09-09T00:51:08;26.00;23.50;19.00
65383;PMS5003;51986;52.788;41.368;2022-09-09T00:56:27;21.75;20.00;16.75
65383;PMS5003;51986;52.788;41.368;2022-09-09T00:59:10;19.25;17.50;14.50
65383;PMS5003;51986;52.788;41.368;2022-09-09T01:01:54;16.50;16.50;14.00
65383;PMS5003;51986;52.788;41.368;2022-09-09T01:04:39;17.00;16.00;13.00
65383;PMS5003;51986;52.788;41.368;2022-09-09T01:07:11;21.00;20.00;16.00
65383;PMS5003;51986;52.788;41.368;2022-09-09T01:09:52;19.50;19.25;15.00
65383;PMS5003;51986;52.788;41.368;2022-09-09T01:12:28;17.00;16.75;13.00
65383;PMS5003;51986;52.788;41.368;2022-09-09T01:15:09;21.00;20.25;16.00
65383;PMS5003;51986;52.788;41.368;2022-09-09T01:29:00;19.00;19.00;14.50
65383;PMS5003;51986;52.788;41.368;2022-09-09T01:31:39;17.00;16.00;13.00
65383;PMS5003;51986;52.788;41.368;2022-09-09T01:34:19;15.00;14.00;12.00
65383;PMS5003;51986;52.788;41.368;2022-09-09T01:36:49;23.00;21.25;16.75
65383;PMS5003;51986;52.788;41.368;2022-09-09T01:39:24;28.00;24.00;19.00
65383;PMS5003;51986;52.788;41.368;2022-09-09T01:42:06;26.00;23.00;18.00
65383;PMS5003;51986;52.788;41.368;2022-09-09T01:44:36;29.00;25.00;19.00
65383;PMS5003;51986;52.788;41.368;2022-09-09T01:47:05;28.00;24.00;19.00
65383;PMS5003;51986;52.788;41.368;2022-09-09T01:49:36;27.00;24.00;19.00
65383;PMS5003;51986;52.788;41.368;2022-09-09T01:52:11;17.75;17.50;14.50
65383;PMS5003;51986;52.788;41.368;2022-09-09T01:54:38;20.50;20.00;16.00
65383;PMS5003;51986;52.788;41.368;2022-09-09T01:57:21;17.50;17.25;14.50
65383;PMS5003;51986;52.788;41.368;2022-09-09T02:00:00;15.00;15.00;14.00
65383;PMS5003;51986;52.788;41.368;2022-09-09T02:08:21;24.75;22.00;18.00
65383;PMS5003;51986;52.788;41.368;2022-09-09T02:11:01;20.50;20.00;15.00
65383;PMS5003;51986;52.788;41.368;2022-09-09T02:13:42;25.75;22.50;18.00
65383;PMS5003;51986;52.788;41.368;2022-09-09T02:16:24;22.00;20.00;15.00
65383;PMS5003;51986;52.788;41.368;2022-09-09T02:18:57;18.00;17.00;14.00
65383;PMS5003;51986;52.788;41.368;2022-09-09T02:21:47;17.00;16.00;13.00
65383;PMS5003;51986;52.788;41.368;2022-09-09T02:24:15;17.00;17.00;14.00
65383;PMS5003;51986;52.788;41.368;2022-09-09T02:26:49;19.75;19.75;15.75
65383;PMS5003;51986;52.788;41.368;2022-09-09T02:29:22;23.00;21.25;17.00
65383;PMS5003;51986;52.788;41.368;2022-09-09T02:31:58;23.75;22.00;16.25
65383;PMS5003;51986;52.788;41.368;2022-09-09T02:34:34;20.00;19.00;15.00
65383;PMS5003;51986;52.788;41.368;2022-09-09T02:37:06;17.00;15.00;13.00
65383;PMS5003;51986;52.788;41.368;2022-09-09T02:39:38;17.25;17.00;15.00
65383;PMS5003;51986;52.788;41.368;2022-09-09T02:42:09;19.00;18.25;15.00
65383;PMS5003;51986;52.788;41.368;2022-09-09T02:44:37;17.00;17.00;15.00
65383;PMS5003;51986;52.788;41.368;2022-09-09T02:49:51;21.25;20.50;16.00
65383;PMS5003;51986;52.788;41.368;2022-09-09T02:55:16;23.75;21.50;17.00
65383;PMS5003;51986;52.788;41.368;2022-09-09T02:57:45;20.00;19.00;15.00
65383;PMS5003;51986;52.788;41.368;2022-09-09T03:00:21;17.00;17.00;13.00
65383;PMS5003;51986;52.788;41.368;2022-09-09T03:02:50;18.00;17.50;14.75
65383;PMS5003;51986;52.788;41.368;2022-09-09T03:08:11;29.00;22.25;19.00
65383;PMS5003;51986;52.788;41.368;2022-09-09T03:10:40;27.25;23.00;18.00
65383;PMS5003;51986;52.788;41.368;2022-09-09T03:13:09;20.25;19.25;15.25
65383;PMS5003;51986;52.788;41.368;2022-09-09T03:15:38;20.00;18.00;15.00
65383;PMS5003;51986;52.788;41.368;2022-09-09T03:18:07;19.50;19.00;16.00
65383;PMS5003;51986;52.788;41.368;2022-09-09T03:20:35;22.00;20.75;16.75
65383;PMS5003;51986;52.788;41.368;2022-09-09T03:23:01;17.25;17.25;14.25
65383;PMS5003;51986;52.788;41.368;2022-09-09T03:25:29;16.00;15.25;13.00
65383;PMS5003;51986;52.788;41.368;2022-09-09T03:27:56;22.00;20.25;16.25
65383;PMS5003;51986;52.788;41.368;2022-09-09T03:30:24;19.50;19.50;15.75
65383;PMS5003;51986;52.788;41.368;2022-09-09T03:32:54;16.75;16.00;13.00
65383;PMS5003;51986;52.788;41.368;2022-09-09T03:35:25;16.00;14.25;13.00
65383;PMS5003;51986;52.788;41.368;2022-09-09T03:38:00;17.00;15.00;13.00
65383;PMS5003;51986;52.788;41.368;2022-09-09T03:40:31;17.00;16.00;13.00
65383;PMS5003;51986;52.788;41.368;2022-09-09T03:42:57;22.00;21.00;16.00
65383;PMS5003;51986;52.788;41.368;2022-09-09T03:45:25;16.75;16.75;15.00
65383;PMS5003;51986;52.788;41.368;2022-09-09T03:47:52;18.00;17.75;14.75
65383;PMS5003;51986;52.788;41.368;2022-09-09T03:50:19;19.50;18.25;15.25
65383;PMS5003;51986;52.788;41.368;2022-09-09T03:52:47;16.75;16.75;15.00
65383;PMS5003;51986;52.788;41.368;2022-09-09T03:55:19;15.00;15.00;13.00
65383;PMS5003;51986;52.788;41.368;2022-09-09T03:57:46;14.00;13.00;12.50
65383;PMS5003;51986;52.788;41.368;2022-09-09T04:00:13;17.75;15.75;14.00
65383;PMS5003;51986;52.788;41.368;2022-09-09T04:02:48;15.25;14.00;13.00
65383;PMS5003;51986;52.788;41.368;2022-09-09T04:05:16;16.75;15.75;14.75
65383;PMS5003;51986;52.788;41.368;2022-09-09T04:07:45;23.00;21.50;18.25
65383;PMS5003;51986;52.788;41.368;2022-09-09T04:10:12;22.00;21.50;17.00
65383;PMS5003;51986;52.788;41.368;2022-09-09T04:12:39;17.50;17.25;15.00
65383;PMS5003;51986;52.788;41.368;2022-09-09T04:15:06;19.00;18.50;15.50
65383;PMS5003;51986;52.788;41.368;2022-09-09T04:17:34;19.75;19.00;16.00
65383;PMS5003;51986;52.788;41.368;2022-09-09T04:20:02;14.25;14.25;13.00
65383;PMS5003;51986;52.788;41.368;2022-09-09T04:22:38;21.00;20.25;17.00
65383;PMS5003;51986;52.788;41.368;2022-09-09T04:25:06;21.00;20.00;17.00
65383;PMS5003;51986;52.788;41.368;2022-09-09T04:27:34;21.50;21.00;18.00
65383;PMS5003;51986;52.788;41.368;2022-09-09T04:30:01;22.00;22.00;17.25
65383;PMS5003;51986;52.788;41.368;2022-09-09T04:32:32;16.50;16.00;14.50
65383;PMS5003;51986;52.788;41.368;2022-09-09T04:34:59;12.50;12.50;10.00
65383;PMS5003;51986;52.788;41.368;2022-09-09T04:37:26;20.25;20.25;16.00
65383;PMS5003;51986;52.788;41.368;2022-09-09T04:39:54;24.50;22.75;19.00
65383;PMS5003;51986;52.788;41.368;2022-09-09T04:42:20;21.50;21.00;18.00
65383;PMS5003;51986;52.788;41.368;2022-09-09T04:44:47;22.00;21.00;17.00
65383;PMS5003;51986;52.788;41.368;2022-09-09T04:47:15;18.75;18.00;15.50
65383;PMS5003;51986;52.788;41.368;2022-09-09T04:49:41;21.50;20.50;17.00
65383;PMS5003;51986;52.788;41.368;2022-09-09T04:52:08;22.00;21.25;17.00
65383;PMS5003;51986;52.788;41.368;2022-09-09T04:54:35;17.50;16.25;14.75
65383;PMS5003;51986;52.788;41.368;2022-09-09T04:57:02;13.00;13.00;12.00
65383;PMS5003;51986;52.788;41.368;2022-09-09T04:59:29;21.25;20.25;17.25
65383;PMS5003;51986;52.788;41.368;2022-09-09T05:01:59;16.25;16.25;15.00
65383;PMS5003;51986;52.788;41.368;2022-09-09T05:04:26;20.00;20.00;16.00
65383;PMS5003;51986;52.788;41.368;2022-09-09T05:06:53;17.50;17.00;15.00
65383;PMS5003;51986;52.788;41.368;2022-09-09T05:09:22;13.00;13.00;13.00
65383;PMS5003;51986;52.788;41.368;2022-09-09T05:11:50;18.75;18.75;15.25
65383;PMS5003;51986;52.788;41.368;2022-09-09T05:14:30;16.50;16.50;15.00
65383;PMS5003;51986;52.788;41.368;2022-09-09T05:16:59;20.75;20.00;17.00
65383;PMS5003;51986;52.788;41.368;2022-09-09T05:19:26;16.75;16.75;15.00
65383;PMS5003;51986;52.788;41.368;2022-09-09T05:21:53;16.00;16.00;15.00
65383;PMS5003;51986;52.788;41.368;2022-09-09T05:24:26;15.00;15.00;13.00
65383;PMS5003;51986;52.788;41.368;2022-09-09T05:26:56;15.00;15.00;13.00
65383;PMS5003;51986;52.788;41.368;2022-09-09T05:29:23;20.25;20.00;16.75
65383;PMS5003;51986;52.788;41.368;2022-09-09T05:31:50;24.00;22.25;19.00
65383;PMS5003;51986;52.788;41.368;2022-09-09T05:34:19;26.75;24.75;20.00
65383;PMS5003;51986;52.788;41.368;2022-09-09T05:36:46;28.75;25.00;20.00
65383;PMS5003;51986;52.788;41.368;2022-09-09T05:39:14;27.00;24.25;19.00
65383;PMS5003;51986;52.788;41.368;2022-09-09T05:41:41;21.75;20.00;16.00
65383;PMS5003;51986;52.788;41.368;2022-09-09T05:44:08;22.00;20.00;15.00
65383;PMS5003;51986;52.788;41.368;2022-09-09T05:46:37;19.00;18.00;15.00
65383;PMS5003;51986;52.788;41.368;2022-09-09T05:49:04;23.00;21.50;17.00
65383;PMS5003;51986;52.788;41.368;2022-09-09T05:51:32;22.00;21.00;16.00
65383;PMS5003;51986;52.788;41.368;2022-09-09T05:54:07;18.25;18.00;15.00
65383;PMS5003;51986;52.788;41.368;2022-09-09T05:56:40;17.25;17.25;15.00
65383;PMS5003;51986;52.788;41.368;2022-09-09T05:59:08;20.00;18.75;15.00
65383;PMS5003;51986;52.788;41.368;2022-09-09T06:01:35;21.00;20.25;17.00
65383;PMS5003;51986;52.788;41.368;2022-09-09T06:04:19;21.25;20.00;17.00
65383;PMS5003;51986;52.788;41.368;2022-09-09T06:06:47;20.00;20.00;16.00
65383;PMS5003;51986;52.788;41.368;2022-09-09T06:09:18;19.00;18.25;15.50
65383;PMS5003;51986;52.788;41.368;2022-09-09T06:11:45;20.00;20.00;15.50
65383;PMS5003;51986;52.788;41.368;2022-09-09T06:14:13;22.00;21.00;16.00
65383;PMS5003;51986;52.788;41.368;2022-09-09T06:16:59;21.25;20.00;16.00
65383;PMS5003;51986;52.788;41.368;2022-09-09T06:19:35;20.00;20.00;15.00
65383;PMS5003;51986;52.788;41.368;2022-09-09T06:22:02;26.50;23.50;18.00
65383;PMS5003;51986;52.788;41.368;2022-09-09T06:24:32;23.50;22.00;18.00
65383;PMS5003;51986;52.788;41.368;2022-09-09T06:27:10;23.00;21.00;18.00
65383;PMS5003;51986;52.788;41.368;2022-09-09T06:29:37;21.00;20.50;17.00
65383;PMS5003;51986;52.788;41.368;2022-09-09T06:32:04;23.00;21.00;16.00
65383;PMS5003;51986;52.788;41.368;2022-09-09T06:34:31;21.25;21.00;16.25
65383;PMS5003;51986;52.788;41.368;2022-09-09T06:36:59;29.00;24.75;19.75
65383;PMS5003;51986;52.788;41.368;2022-09-09T06:39:33;30.50;25.00;19.50
65383;PMS5003;51986;52.788;41.368;2022-09-09T06:44:49;32.00;27.00;21.25
65383;PMS5003;51986;52.788;41.368;2022-09-09T06:47:33;31.00;26.00;21.00
65383;PMS5003;51986;52.788;41.368;2022-09-09T06:50:00;32.00;27.00;21.00
65383;PMS5003;51986;52.788;41.368;2022-09-09T06:52:34;26.25;23.50;19.00
65383;PMS5003;51986;52.788;41.368;2022-09-09T06:55:02;27.25;24.00;20.00
65383;PMS5003;51986;52.788;41.368;2022-09-09T06:57:31;29.00;25.00;20.00
65383;PMS5003;51986;52.788;41.368;2022-09-09T07:00:11;28.00;24.00;19.00
65383;PMS5003;51986;52.788;41.368;2022-09-09T07:02:39;28.00;25.00;20.00
65383;PMS5003;51986;52.788;41.368;2022-09-09T07:05:08;27.00;24.00;19.00
65383;PMS5003;51986;52.788;41.368;2022-09-09T07:07:36;24.50;23.00;18.00
65383;PMS5003;51986;52.788;41.368;2022-09-09T07:10:03;27.50;25.00;20.00
65383;PMS5003;51986;52.788;41.368;2022-09-09T07:12:30;21.50;20.25;18.00
65383;PMS5003;51986;52.788;41.368;2022-09-09T07:14:59;25.75;22.00;17.00
65383;PMS5003;51986;52.788;41.368;2022-09-09T07:17:28;24.00;22.00;18.00
65383;PMS5003;51986;52.788;41.368;2022-09-09T07:19:57;23.00;21.00;16.00
65383;PMS5003;51986;52.788;41.368;2022-09-09T07:22:25;25.00;23.00;18.50
65383;PMS5003;51986;52.788;41.368;2022-09-09T07:24:53;21.00;21.00;18.00
65383;PMS5003;51986;52.788;41.368;2022-09-09T07:27:20;20.75;20.00;16.25
65383;PMS5003;51986;52.788;41.368;2022-09-09T07:29:50;21.75;20.75;18.00
65383;PMS5003;51986;52.788;41.368;2022-09-09T07:32:20;20.00;20.00;16.00
65383;PMS5003;51986;52.788;41.368;2022-09-09T07:34:47;25.00;22.00;18.25
65383;PMS5003;51986;52.788;41.368;2022-09-09T07:37:14;21.25;20.25;18.00
65383;PMS5003;51986;52.788;41.368;2022-09-09T07:39:43;19.00;19.00;16.00
65383;PMS5003;51986;52.788;41.368;2022-09-09T07:42:11;27.75;25.00;20.00
65383;PMS5003;51986;52.788;41.368;2022-09-09T07:44:38;25.25;23.00;19.00
65383;PMS5003;51986;52.788;41.368;2022-09-09T07:47:09;25.00;22.25;18.00
65383;PMS5003;51986;52.788;41.368;2022-09-09T07:49:43;28.50;25.00;19.75
65383;PMS5003;51986;52.788;41.368;2022-09-09T07:52:10;25.75;23.50;19.00
65383;PMS5003;51986;52.788;41.368;2022-09-09T07:54:43;23.00;21.00;18.00
65383;PMS5003;51986;52.788;41.368;2022-09-09T07:57:11;24.00;22.00;18.00
65383;PMS5003;51986;52.788;41.368;2022-09-09T07:59:38;22.00;21.00;18.00
65383;PMS5003;51986;52.788;41.368;2022-09-09T08:02:08;26.25;23.50;19.00
65383;PMS5003;51986;52.788;41.368;2022-09-09T08:04:36;24.00;22.75;18.00
65383;PMS5003;51986;52.788;41.368;2022-09-09T08:10:03;29.50;25.50;20.25
65383;PMS5003;51986;52.788;41.368;2022-09-09T08:12:46;32.00;27.00;21.00
65383;PMS5003;51986;52.788;41.368;2022-09-09T08:15:33;26.50;23.75;19.00
65383;PMS5003;51986;52.788;41.368;2022-09-09T08:18:02;23.00;21.00;17.75
65383;PMS5003;51986;52.788;41.368;2022-09-09T08:20:29;26.50;23.75;19.00
65383;PMS5003;51986;52.788;41.368;2022-09-09T08:22:56;28.75;25.00;20.75
65383;PMS5003;51986;52.788;41.368;2022-09-09T08:25:23;29.50;25.50;21.00
65383;PMS5003;51986;52.788;41.368;2022-09-09T08:27:50;23.00;22.00;18.00
65383;PMS5003;51986;52.788;41.368;2022-09-09T08:30:20;23.00;21.25;18.00
65383;PMS5003;51986;52.788;41.368;2022-09-09T08:32:48;23.75;22.75;18.00
65383;PMS5003;51986;52.788;41.368;2022-09-09T08:35:19;25.00;23.00;19.00
65383;PMS5003;51986;52.788;41.368;2022-09-09T08:37:47;21.00;21.00;18.00
65383;PMS5003;51986;52.788;41.368;2022-09-09T08:40:18;36.50;29.50;21.25
65383;PMS5003;51986;52.788;41.368;2022-09-09T08:42:51;29.00;24.25;19.00
65383;PMS5003;51986;52.788;41.368;2022-09-09T08:45:25;25.75;23.00;19.50
65383;PMS5003;51986;52.788;41.368;2022-09-09T08:48:20;20.50;20.50;17.00
65383;PMS5003;51986;52.788;41.368;2022-09-09T08:50:52;23.25;22.00;19.00
65383;PMS5003;51986;52.788;41.368;2022-09-09T08:53:37;20.75;20.75;16.75
65383;PMS5003;51986;52.788;41.368;2022-09-09T08:56:10;25.75;23.25;20.00
65383;PMS5003;51986;52.788;41.368;2022-09-09T08:58:48;21.50;20.50;18.00
65383;PMS5003;51986;52.788;41.368;2022-09-09T09:01:36;21.50;21.00;17.00
65383;PMS5003;51986;52.788;41.368;2022-09-09T09:12:24;18.00;18.00;16.00
65383;PMS5003;51986;52.788;41.368;2022-09-09T09:14:55;16.00;16.00;15.00
65383;PMS5003;51986;52.788;41.368;2022-09-09T09:17:23;17.75;17.75;15.00
65383;PMS5003;51986;52.788;41.368;2022-09-09T09:19:53;22.75;20.75;17.50
65383;PMS5003;51986;52.788;41.368;2022-09-09T09:22:22;23.50;22.00;19.00
65383;PMS5003;51986;52.788;41.368;2022-09-09T09:27:52;29.00;25.00;21.00
65383;PMS5003;51986;52.788;41.368;2022-09-09T09:30:50;30.00;26.00;20.50
65383;PMS5003;51986;52.788;41.368;2022-09-09T09:36:08;21.00;19.00;16.00
65383;PMS5003;51986;52.788;41.368;2022-09-09T09:38:37;20.00;19.00;16.00
65383;PMS5003;51986;52.788;41.368;2022-09-09T09:44:03;20.00;19.00;16.00
65383;PMS5003;51986;52.788;41.368;2022-09-09T09:46:32;24.00;22.25;19.00
65383;PMS5003;51986;52.788;41.368;2022-09-09T09:49:10;25.50;23.00;19.00
65383;PMS5003;51986;52.788;41.368;2022-09-09T09:51:38;26.00;24.00;19.00
65383;PMS5003;51986;52.788;41.368;2022-09-09T09:57:13;19.00;19.00;16.00
65383;PMS5003;51986;52.788;41.368;2022-09-09T09:59:44;19.00;19.00;16.00
65383;PMS5003;51986;52.788;41.368;2022-09-09T10:02:24;23.00;22.00;18.00
65383;PMS5003;51986;52.788;41.368;2022-09-09T10:05:00;26.00;24.00;19.00
65383;PMS5003;51986;52.788;41.368;2022-09-09T10:07:42;22.50;20.25;16.25
65383;PMS5003;51986;52.788;41.368;2022-09-09T10:10:15;20.00;20.00;16.00
65383;PMS5003;51986;52.788;41.368;2022-09-09T10:18:48;23.00;21.75;18.75
65383;PMS5003;51986;52.788;41.368;2022-09-09T10:27:05;19.00;19.00;16.00
65383;PMS5003;51986;52.788;41.368;2022-09-09T10:35:40;23.50;22.00;18.00
65383;PMS5003;51986;52.788;41.368;2022-09-09T10:54:32;20.50;20.50;17.50
65383;PMS5003;51986;52.788;41.368;2022-09-09T11:00:02;21.00;19.00;17.00
65383;PMS5003;51986;52.788;41.368;2022-09-09T11:02:33;24.00;22.50;19.00
65383;PMS5003;51986;52.788;41.368;2022-09-09T11:05:05;28.50;25.50;21.00
65383;PMS5003;51986;52.788;41.368;2022-09-09T11:07:42;29.25;25.00;21.00
65383;PMS5003;51986;52.788;41.368;2022-09-09T11:10:32;25.00;22.00;19.00
65383;PMS5003;51986;52.788;41.368;2022-09-09T11:13:02;24.00;21.00;18.00
65383;PMS5003;51986;52.788;41.368;2022-09-09T11:15:36;19.25;19.00;16.50
65383;PMS5003;51986;52.788;41.368;2022-09-09T11:18:19;24.75;22.25;19.00
65383;PMS5003;51986;52.788;41.368;2022-09-09T11:20:48;24.00;23.00;19.00
65383;PMS5003;51986;52.788;41.368;2022-09-09T11:23:27;28.75;25.75;21.00
65383;PMS5003;51986;52.788;41.368;2022-09-09T11:26:07;23.00;22.50;19.00
65383;PMS5003;51986;52.788;41.368;2022-09-09T11:31:35;29.00;26.00;21.00
65383;PMS5003;51986;52.788;41.368;2022-09-09T11:37:36;22.00;21.00;18.00
65383;PMS5003;51986;52.788;41.368;2022-09-09T11:43:24;19.00;19.00;16.00
65383;PMS5003;51986;52.788;41.368;2022-09-09T11:45:57;23.75;22.00;19.00
65383;PMS5003;51986;52.788;41.368;2022-09-09T11:53:55;20.50;20.50;17.00
65383;PMS5003;51986;52.788;41.368;2022-09-09T11:59:02;23.00;21.00;18.00
65383;PMS5003;51986;52.788;41.368;2022-09-09T12:01:38;21.00;21.00;17.00
65383;PMS5003;51986;52.788;41.368;2022-09-09T12:06:42;17.00;17.00;16.00
65383;PMS5003;51986;52.788;41.368;2022-09-09T12:09:43;24.75;23.50;19.75
65383;PMS5003;51986;52.788;41.368;2022-09-09T12:19:41;23.00;21.00;18.00
65383;PMS5003;51986;52.788;41.368;2022-09-09T12:22:27;19.50;19.50;16.00
65383;PMS5003;51986;52.788;41.368;2022-09-09T12:28:06;24.00;22.00;19.00
65383;PMS5003;51986;52.788;41.368;2022-09-09T12:30:48;28.00;25.25;21.00
65383;PMS5003;51986;52.788;41.368;2022-09-09T12:33:32;23.00;22.00;18.00
65383;PMS5003;51986;52.788;41.368;2022-09-09T12:36:02;22.00;21.00;17.00
65383;PMS5003;51986;52.788;41.368;2022-09-09T12:38:41;24.00;22.50;19.00
65383;PMS5003;51986;52.788;41.368;2022-09-09T12:41:50;21.00;20.50;16.00
65383;PMS5003;51986;52.788;41.368;2022-09-09T12:44:03;26.00;23.00;19.00
65383;PMS5003;51986;52.788;41.368;2022-09-09T12:46:33;24.00;22.25;18.50
65383;PMS5003;51986;52.788;41.368;2022-09-09T12:49:04;19.00;19.00;17.00
65383;PMS5003;51986;52.788;41.368;2022-09-09T12:51:31;24.25;22.50;19.00
65383;PMS5003;51986;52.788;41.368;2022-09-09T12:53:59;22.00;21.00;18.00
65383;PMS5003;51986;52.788;41.368;2022-09-09T12:56:28;21.00;21.00;17.00
65383;PMS5003;51986;52.788;41.368;2022-09-09T12:58:58;26.00;23.50;20.00
65383;PMS5003;51986;52.788;41.368;2022-09-09T13:01:26;24.25;23.00;19.00
65383;PMS5003;51986;52.788;41.368;2022-09-09T13:03:56;29.00;25.25;21.25
65383;PMS5003;51986;52.788;41.368;2022-09-09T13:06:24;24.00;22.00;19.00
65383;PMS5003;51986;52.788;41.368;2022-09-09T13:08:57;21.00;21.00;18.00
65383;PMS5003;51986;52.788;41.368;2022-09-09T13:14:18;26.50;24.50;20.00
65383;PMS5003;51986;52.788;41.368;2022-09-09T13:16:57;26.75;23.00;20.00
65383;PMS5003;51986;52.788;41.368;2022-09-09T13:19:43;24.00;22.00;18.00
65383;PMS5003;51986;52.788;41.368;2022-09-09T13:22:20;22.50;21.50;18.00
65383;PMS5003;51986;52.788;41.368;2022-09-09T13:25:39;22.00;22.00;18.00
65383;PMS5003;51986;52.788;41.368;2022-09-09T13:27:53;28.00;25.00;20.00
65383;PMS5003;51986;52.788;41.368;2022-09-09T13:30:36;26.00;23.00;20.00
65383;PMS5003;51986;52.788;41.368;2022-09-09T13:38:24;26.50;23.75;19.50
65383;PMS5003;51986;52.788;41.368;2022-09-09T13:40:54;27.25;25.00;21.00
65383;PMS5003;51986;52.788;41.368;2022-09-09T13:43:51;26.25;23.75;19.00
65383;PMS5003;51986;52.788;41.368;2022-09-09T13:46:34;24.50;22.75;19.00
65383;PMS5003;51986;52.788;41.368;2022-09-09T13:51:34;26.75;24.00;20.00
65383;PMS5003;51986;52.788;41.368;2022-09-09T13:54:04;27.00;24.00;20.00
65383;PMS5003;51986;52.788;41.368;2022-09-09T13:56:32;24.00;23.00;19.00
65383;PMS5003;51986;52.788;41.368;2022-09-09T14:01:56;21.00;21.00;18.00
65383;PMS5003;51986;52.788;41.368;2022-09-09T14:04:23;21.00;21.00;18.00
65383;PMS5003;51986;52.788;41.368;2022-09-09T14:06:50;31.25;26.50;19.75
65383;PMS5003;51986;52.788;41.368;2022-09-09T14:09:17;34.00;29.00;22.00
65383;PMS5003;51986;52.788;41.368;2022-09-09T14:12:11;34.00;29.00;22.00
65383;PMS5003;51986;52.788;41.368;2022-09-09T14:14:38;28.00;24.75;20.00
65383;PMS5003;51986;52.788;41.368;2022-09-09T14:17:28;21.50;21.00;18.00
65383;PMS5003;51986;52.788;41.368;2022-09-09T14:19:55;19.00;19.00;16.00
65383;PMS5003;51986;52.788;41.368;2022-09-09T14:22:24;19.00;18.25;16.25
65383;PMS5003;51986;52.788;41.368;2022-09-09T14:24:52;19.25;19.25;17.00
65383;PMS5003;51986;52.788;41.368;2022-09-09T14:27:19;23.50;22.00;18.50
65383;PMS5003;51986;52.788;41.368;2022-09-09T14:29:45;21.50;21.00;17.50
65383;PMS5003;51986;52.788;41.368;2022-09-09T14:32:12;22.00;21.00;18.00
65383;PMS5003;51986;52.788;41.368;2022-09-09T14:37:26;22.75;22.00;19.00
65383;PMS5003;51986;52.788;41.368;2022-09-09T14:39:53;25.75;23.50;20.25
65383;PMS5003;51986;52.788;41.368;2022-09-09T14:42:21;24.00;22.00;18.25
65383;PMS5003;51986;52.788;41.368;2022-09-09T14:44:48;22.00;21.00;17.00
65383;PMS5003;51986;52.788;41.368;2022-09-09T14:47:15;26.25;24.25;20.00
65383;PMS5003;51986;52.788;41.368;2022-09-09T14:49:42;27.00;24.50;20.00
65383;PMS5003;51986;52.788;41.368;2022-09-09T14:52:12;28.50;25.00;21.00
65383;PMS5003;51986;52.788;41.368;2022-09-09T14:54:39;27.00;24.00;20.00
65383;PMS5003;51986;52.788;41.368;2022-09-09T14:57:06;26.00;24.00;19.00
65383;PMS5003;51986;52.788;41.368;2022-09-09T14:59:33;23.50;22.00;19.00
65383;PMS5003;51986;52.788;41.368;2022-09-09T15:02:00;20.25;20.00;17.00
65383;PMS5003;51986;52.788;41.368;2022-09-09T15:04:27;17.00;17.00;16.00
65383;PMS5003;51986;52.788;41.368;2022-09-09T15:06:54;16.25;16.25;15.00
65383;PMS5003;51986;52.788;41.368;2022-09-09T15:09:21;19.00;19.00;16.00
65383;PMS5003;51986;52.788;41.368;2022-09-09T15:11:52;23.75;22.00;19.00
65383;PMS5003;51986;52.788;41.368;2022-09-09T15:14:59;24.00;22.00;19.00
65383;PMS5003;51986;52.788;41.368;2022-09-09T15:17:26;17.00;17.00;15.00
65383;PMS5003;51986;52.788;41.368;2022-09-09T15:20:03;18.00;17.00;16.00
65383;PMS5003;51986;52.788;41.368;2022-09-09T15:25:52;17.00;17.00;15.00
65383;PMS5003;51986;52.788;41.368;2022-09-09T15:28:20;24.25;22.75;19.00
65383;PMS5003;51986;52.788;41.368;2022-09-09T15:30:48;24.00;23.00;19.00
65383;PMS5003;51986;52.788;41.368;2022-09-09T15:33:21;23.00;22.00;19.00
65383;PMS5003;51986;52.788;41.368;2022-09-09T15:35:49;24.25;22.75;19.00
65383;PMS5003;51986;52.788;41.368;2022-09-09T15:38:16;22.75;21.75;18.75
65383;PMS5003;51986;52.788;41.368;2022-09-09T15:40:43;21.00;21.00;17.00
65383;PMS5003;51986;52.788;41.368;2022-09-09T15:43:10;25.25;23.00;19.00
65383;PMS5003;51986;52.788;41.368;2022-09-09T15:46:14;23.00;22.00;19.00
65383;PMS5003;51986;52.788;41.368;2022-09-09T15:48:51;24.00;23.00;19.00
65383;PMS5003;51986;52.788;41.368;2022-09-09T15:51:21;24.75;22.75;19.00
65383;PMS5003;51986;52.788;41.368;2022-09-09T15:57:10;18.00;18.00;15.00
65383;PMS5003;51986;52.788;41.368;2022-09-09T16:00:01;15.50;15.50;14.00
65383;PMS5003;51986;52.788;41.368;2022-09-09T16:02:34;18.50;18.50;15.75
65383;PMS5003;51986;52.788;41.368;2022-09-09T16:05:08;28.25;24.75;19.00
65383;PMS5003;51986;52.788;41.368;2022-09-09T16:07:48;28.00;24.00;19.25
65383;PMS5003;51986;52.788;41.368;2022-09-09T16:10:19;32.25;26.75;21.00
65383;PMS5003;51986;52.788;41.368;2022-09-09T16:12:46;23.75;22.00;18.00
65383;PMS5003;51986;52.788;41.368;2022-09-09T16:15:16;22.00;21.00;17.00
65383;PMS5003;51986;52.788;41.368;2022-09-09T16:17:50;18.00;18.00;15.00
65383;PMS5003;51986;52.788;41.368;2022-09-09T16:20:24;22.50;21.25;17.75
65383;PMS5003;51986;52.788;41.368;2022-09-09T16:22:51;23.00;22.00;18.00
65383;PMS5003;51986;52.788;41.368;2022-09-09T16:25:18;21.00;20.00;16.00
65383;PMS5003;51986;52.788;41.368;2022-09-09T16:27:52;27.75;25.00;20.00
65383;PMS5003;51986;52.788;41.368;2022-09-09T16:30:19;27.75;24.00;19.00